Time,TemperatureF,DewpointF,PressureIn,WindDirection,WindDirectionDegrees,WindSpeedMPH,WindSpeedGustMPH,Humidity,HourlyPrecipIn,Conditions,Clouds,dailyrainin,SolarRadiationWatts/m^2,SoftwareType,DateUTC
2013-06-07 00:00:00,75.6,71.1,29.84,NNE,22,1.0,5.0,86,0.00,,,0.00,0.00,VWS V14.00,2013-06-07 05:00:00,
2013-06-07 00:15:00,76.0,71.5,29.84,ENE,68,1.0,5.0,86,0.00,,,0.00,0.00,VWS V14.00,2013-06-07 05:15:00,
2013-06-07 00:30:00,76.2,72.1,29.84,ENE,68,0.0,3.0,87,0.00,,,0.00,0.00,VWS V14.00,2013-06-07 05:30:00,
2013-06-07 00:45:00,76.1,71.9,29.83,ENE,68,0.0,3.0,87,0.00,,,0.00,0.00,VWS V14.00,2013-06-07 05:45:00,
2013-06-07 01:00:00,75.9,71.8,29.83,ENE,68,0.0,3.0,87,0.00,,,0.00,0.00,VWS V14.00,2013-06-07 06:00:00,
2013-06-07 01:15:00,75.7,70.9,29.83,ENE,68,0.0,3.0,85,0.00,,,0.00,0.00,VWS V14.00,2013-06-07 06:15:00,
2013-06-07 01:30:00,76.4,72.2,29.83,ENE,68,0.0,2.0,87,0.00,,,0.00,0.00,VWS V14.00,2013-06-07 06:30:00,
2013-06-07 01:45:00,76.0,71.9,29.82,ENE,68,0.0,3.0,87,0.00,,,0.00,0.00,VWS V14.00,2013-06-07 06:45:00,
2013-06-07 02:00:00,75.9,72.1,29.82,ENE,68,0.0,2.0,88,0.00,,,0.00,0.00,VWS V14.00,2013-06-07 07:00:00,
2013-06-07 02:15:00,75.2,70.7,29.82,ENE,68,1.0,4.0,86,0.00,,,0.00,0.00,VWS V14.00,2013-06-07 07:15:00,
2013-06-07 02:30:00,74.9,70.8,29.81,ENE,68,1.0,5.0,87,0.00,,,0.00,0.00,VWS V14.00,2013-06-07 07:30:00,
2013-06-07 02:45:00,74.9,70.4,29.82,NNE,22,1.0,4.0,86,0.00,,,0.00,0.00,VWS V14.00,2013-06-07 07:45:00,
2013-06-07 03:00:00,74.8,70.7,29.82,NNE,22,1.0,3.0,87,0.00,,,0.00,0.00,VWS V14.00,2013-06-07 08:00:00,
2013-06-07 03:15:00,74.4,70.6,29.81,NNE,22,0.0,4.0,88,0.00,,,0.00,0.00,VWS V14.00,2013-06-07 08:15:00,
2013-06-07 03:30:00,74.0,70.2,29.82,North,0,1.0,4.0,88,0.00,,,0.00,0.00,VWS V14.00,2013-06-07 08:30:00,
2013-06-07 03:45:00,73.8,70.0,29.82,North,0,0.0,4.0,88,0.00,,,0.00,0.00,VWS V14.00,2013-06-07 08:45:00,
2013-06-07 04:00:00,73.8,70.0,29.82,North,0,1.0,5.0,88,0.00,,,0.00,0.00,VWS V14.00,2013-06-07 09:00:00,
2013-06-07 04:15:00,73.9,70.1,29.82,North,0,1.0,4.0,88,0.00,,,0.00,0.00,VWS V14.00,2013-06-07 09:15:00,
2013-06-07 04:30:00,73.9,70.1,29.82,North,0,2.0,7.0,88,0.00,,,0.00,0.00,VWS V14.00,2013-06-07 09:30:00,
2013-06-07 04:45:00,73.9,70.1,29.83,North,0,2.0,6.0,88,0.00,,,0.00,0.00,VWS V14.00,2013-06-07 09:45:00,
2013-06-07 05:00:00,73.9,69.8,29.82,NNW,338,2.0,6.0,87,0.00,,,0.00,0.00,VWS V14.00,2013-06-07 10:00:00,
2013-06-07 05:15:00,74.1,69.7,29.82,NNW,338,3.0,9.0,86,0.00,,,0.00,0.00,VWS V14.00,2013-06-07 10:15:00,
2013-06-07 05:37:00,74.1,69.3,29.83,North,0,3.0,12.0,85,0.00,,,0.00,0.00,VWS V14.00,2013-06-07 10:37:00,
2013-06-07 05:45:00,74.1,69.3,29.82,North,355,3.0,9.0,85,0.00,,,0.00,0.00,VWS V14.00,2013-06-07 10:45:00,
2013-06-07 06:00:00,73.9,69.1,29.83,North,0,2.0,10.0,85,0.00,,,0.00,0.00,VWS V14.00,2013-06-07 11:00:00,
2013-06-07 06:15:00,73.7,68.9,29.84,NW,315,2.0,6.0,85,0.00,,,0.00,0.00,VWS V14.00,2013-06-07 11:15:00,
2013-06-07 06:30:00,73.6,69.2,29.84,North,0,1.0,5.0,86,0.00,,,0.00,0.00,VWS V14.00,2013-06-07 11:30:00,
2013-06-07 06:45:00,73.4,69.0,29.85,North,0,3.0,9.0,86,0.00,,,0.00,0.00,VWS V14.00,2013-06-07 11:45:00,
2013-06-07 07:15:00,73.3,69.2,29.86,North,0,3.0,12.0,87,0.00,,,0.00,15.00,VWS V14.00,2013-06-07 12:15:00,
2013-06-07 07:30:00,73.5,69.4,29.86,North,0,2.0,7.0,87,0.00,,,0.00,45.00,VWS V14.00,2013-06-07 12:30:00,
2013-06-07 07:45:00,73.8,69.7,29.86,NNE,22,3.0,8.0,87,0.00,,,0.00,51.00,VWS V14.00,2013-06-07 12:45:00,
2013-06-07 08:00:00,74.4,70.3,29.86,NNE,22,2.0,7.0,87,0.00,,,0.00,122.00,VWS V14.00,2013-06-07 13:00:00,
2013-06-07 08:15:00,75.6,70.4,29.86,North,0,3.0,10.0,84,0.00,,,0.00,307.00,VWS V14.00,2013-06-07 13:15:00,
2013-06-07 08:30:00,76.5,70.6,29.86,North,0,3.0,9.0,82,0.00,,,0.00,330.00,VWS V14.00,2013-06-07 13:30:00,
2013-06-07 08:45:00,77.0,70.7,29.86,North,0,4.0,9.0,81,0.00,,,0.00,374.00,VWS V14.00,2013-06-07 13:45:00,
2013-06-07 09:00:00,77.8,71.1,29.86,NNE,22,4.0,11.0,80,0.00,,,0.00,438.00,VWS V14.00,2013-06-07 14:00:00,
2013-06-07 09:15:00,78.3,70.9,29.87,North,0,4.0,10.0,78,0.00,,,0.00,499.00,VWS V14.00,2013-06-07 14:15:00,
2013-06-07 09:45:00,79.9,70.9,29.86,NE,45,4.0,10.0,74,0.00,,,0.00,587.00,VWS V14.00,2013-06-07 14:45:00,
2013-06-07 10:00:00,81.4,70.7,29.86,North,0,4.0,11.0,70,0.00,,,0.00,634.00,VWS V14.00,2013-06-07 15:00:00,
2013-06-07 10:15:00,82.4,70.3,29.86,North,0,3.0,9.0,67,0.00,,,0.00,675.00,VWS V14.00,2013-06-07 15:15:00,
2013-06-07 10:30:00,82.0,70.0,29.86,NNE,22,4.0,10.0,67,0.00,,,0.00,712.00,VWS V14.00,2013-06-07 15:30:00,
2013-06-07 10:45:00,84.2,70.7,29.87,NNE,22,3.0,10.0,64,0.00,,,0.00,749.00,VWS V14.00,2013-06-07 15:45:00,
2013-06-07 11:00:00,85.3,70.8,29.87,North,0,3.0,7.0,62,0.00,,,0.00,790.00,VWS V14.00,2013-06-07 16:00:00,
2013-06-07 11:15:00,85.1,70.6,29.87,North,0,4.0,10.0,62,0.00,,,0.00,822.00,VWS V14.00,2013-06-07 16:15:00,
2013-06-07 11:30:00,85.2,69.8,29.87,NNE,22,3.0,10.0,60,0.00,,,0.00,562.00,VWS V14.00,2013-06-07 16:30:00,
2013-06-07 11:45:00,85.1,69.7,29.87,NE,45,2.0,9.0,60,0.00,,,0.00,473.00,VWS V14.00,2013-06-07 16:45:00,
2013-06-07 12:00:00,85.6,70.1,29.87,North,0,2.0,7.0,60,0.00,,,0.00,417.00,VWS V14.00,2013-06-07 17:00:00,
2013-06-07 12:30:00,85.7,70.7,29.87,North,0,3.0,10.0,61,0.00,,,0.00,380.00,VWS V14.00,2013-06-07 17:30:00,
2013-06-07 12:45:00,85.4,70.4,29.87,North,0,2.0,8.0,61,0.00,,,0.00,319.00,VWS V14.00,2013-06-07 17:45:00,
2013-06-07 13:00:00,86.1,71.1,29.87,North,0,3.0,10.0,61,0.00,,,0.00,531.00,VWS V14.00,2013-06-07 18:00:00,
2013-06-07 13:15:00,87.9,70.3,29.86,North,0,2.0,6.0,56,0.00,,,0.00,847.00,VWS V14.00,2013-06-07 18:15:00,
2013-06-07 13:30:00,88.5,70.3,29.86,North,0,2.0,6.0,55,0.00,,,0.00,550.00,VWS V14.00,2013-06-07 18:30:00,
2013-06-07 13:53:00,88.1,70.4,29.86,North,0,2.0,7.0,56,0.00,,,0.00,534.00,VWS V14.00,2013-06-07 18:53:00,
2013-06-07 14:15:00,89.5,70.7,29.85,WNW,284,2.0,5.0,54,0.00,,,0.00,315.00,VWS V14.00,2013-06-07 19:15:00,
2013-06-07 14:30:00,89.0,70.8,29.85,West,270,1.0,6.0,55,0.00,,,0.00,306.00,VWS V14.00,2013-06-07 19:30:00,
2013-06-07 14:45:00,88.9,71.2,29.84,NW,315,1.0,6.0,56,0.00,,,0.00,376.00,VWS V14.00,2013-06-07 19:45:00,
2013-06-07 15:15:00,90.5,71.1,29.84,NNW,338,1.0,6.0,53,0.00,,,0.00,492.00,VWS V14.00,2013-06-07 20:15:00,
2013-06-07 15:30:00,90.1,71.8,29.84,WNW,292,1.0,6.0,55,0.00,,,0.00,509.00,VWS V14.00,2013-06-07 20:30:00,
2013-06-07 15:45:00,90.2,70.8,29.83,NW,315,1.0,6.0,53,0.00,,,0.00,285.00,VWS V14.00,2013-06-07 20:45:00,
2013-06-07 16:00:00,89.5,70.7,29.82,NW,315,1.0,4.0,54,0.00,,,0.00,277.00,VWS V14.00,2013-06-07 21:00:00,
2013-06-07 16:15:00,90.0,70.6,29.82,NNW,338,1.0,5.0,53,0.00,,,0.00,370.00,VWS V14.00,2013-06-07 21:15:00,
2013-06-07 16:30:00,90.4,70.9,29.82,NNW,338,1.0,5.0,53,0.00,,,0.00,453.00,VWS V14.00,2013-06-07 21:30:00,
2013-06-07 16:45:00,91.0,70.4,29.82,WNW,292,1.0,6.0,51,0.00,,,0.00,439.00,VWS V14.00,2013-06-07 21:45:00,
2013-06-07 17:00:00,91.2,70.6,29.82,NNE,22,0.0,4.0,51,0.00,,,0.00,269.00,VWS V14.00,2013-06-07 22:00:00,
2013-06-07 17:15:00,90.0,70.0,29.81,NNW,338,1.0,3.0,52,0.00,,,0.00,169.00,VWS V14.00,2013-06-07 22:15:00,
2013-06-07 17:30:00,89.2,70.4,29.81,NNW,338,0.0,3.0,54,0.00,,,0.00,110.00,VWS V14.00,2013-06-07 22:30:00,
2013-06-07 17:45:00,88.7,70.5,29.80,NNW,338,0.0,3.0,55,0.00,,,0.00,61.00,VWS V14.00,2013-06-07 22:45:00,
2013-06-07 18:00:00,87.7,70.6,29.80,NNW,338,1.0,6.0,57,0.00,,,0.00,26.00,VWS V14.00,2013-06-07 23:00:00,
2013-06-07 18:15:00,86.9,70.9,29.80,West,270,1.0,9.0,59,0.00,,,0.00,34.00,VWS V14.00,2013-06-07 23:15:00,
2013-06-07 18:30:00,83.8,72.1,29.81,West,270,3.0,11.0,68,0.00,,,0.00,37.00,VWS V14.00,2013-06-07 23:30:00,
2013-06-07 18:45:00,80.5,71.8,29.82,West,270,4.0,14.0,75,0.00,,,0.00,23.00,VWS V14.00,2013-06-07 23:45:00,
2013-06-07 19:00:00,79.0,71.6,29.82,WSW,248,3.0,13.0,78,0.00,,,0.00,19.00,VWS V14.00,2013-06-08 00:00:00,
2013-06-07 19:15:00,77.9,70.5,29.81,West,270,3.0,12.0,78,0.00,,,0.00,17.00,VWS V14.00,2013-06-08 00:15:00,
2013-06-07 19:30:00,77.9,70.1,29.81,West,270,2.0,12.0,77,0.00,,,0.00,9.00,VWS V14.00,2013-06-08 00:30:00,
2013-06-07 19:45:00,77.8,70.4,29.82,West,270,1.0,7.0,78,0.00,,,0.00,2.00,VWS V14.00,2013-06-08 00:45:00,
2013-06-07 20:00:00,77.2,70.6,29.83,SW,225,1.0,16.0,80,0.00,,,0.00,0.00,VWS V14.00,2013-06-08 01:00:00,
2013-06-07 20:15:00,76.2,70.3,29.84,South,180,2.0,9.0,82,0.00,,,0.00,0.00,VWS V14.00,2013-06-08 01:15:00,
2013-06-07 20:30:00,75.5,71.0,29.83,South,180,2.0,10.0,86,0.00,,,0.01,0.00,VWS V14.00,2013-06-08 01:30:00,
2013-06-07 20:45:00,75.0,71.5,29.84,South,180,0.0,3.0,89,0.09,,,0.03,0.00,VWS V14.00,2013-06-08 01:45:00,
2013-06-07 21:00:00,74.7,71.2,29.83,South,180,0.0,3.0,89,0.00,,,0.03,0.00,VWS V14.00,2013-06-08 02:00:00,
2013-06-07 21:15:00,74.6,71.5,29.82,SE,135,0.0,4.0,90,0.00,,,0.04,0.00,VWS V14.00,2013-06-08 02:15:00,
2013-06-07 21:30:00,74.8,72.0,29.81,ENE,68,1.0,5.0,91,0.00,,,0.04,0.00,VWS V14.00,2013-06-08 02:30:00,
2013-06-07 21:45:00,74.1,71.3,29.81,NE,45,1.0,5.0,91,0.00,,,0.04,0.00,VWS V14.00,2013-06-08 02:45:00,
2013-06-07 22:00:00,74.3,71.5,29.79,NE,45,1.0,4.0,91,0.00,,,0.04,0.00,VWS V14.00,2013-06-08 03:00:00,
2013-06-07 22:15:00,74.5,71.1,29.79,North,0,1.0,4.0,89,0.00,,,0.04,0.00,VWS V14.00,2013-06-08 03:15:00,
2013-06-07 22:30:00,74.8,71.0,29.77,ENE,68,1.0,6.0,88,0.00,,,0.04,0.00,VWS V14.00,2013-06-08 03:30:00,
2013-06-07 22:45:00,74.6,70.8,29.78,NE,45,0.0,4.0,88,0.00,,,0.04,0.00,VWS V14.00,2013-06-08 03:45:00,
2013-06-07 23:00:00,74.7,71.2,29.80,North,355,0.0,0.0,89,0.00,,,0.04,0.00,VWS V14.00,2013-06-08 04:00:00,
2013-06-07 23:15:00,74.6,71.2,29.81,North,0,0.0,1.0,89,0.00,,,0.04,0.00,VWS V14.00,2013-06-08 04:15:00,
2013-06-07 23:30:00,74.9,71.4,29.80,North,349,0.0,2.0,89,0.00,,,0.04,0.00,VWS V14.00,2013-06-08 04:30:00,
2013-06-07 23:45:00,74.7,70.9,29.81,North,349,0.0,1.0,88,0.00,,,0.04,0.00,VWS V14.00,2013-06-08 04:45:00,